Time;durP1;ratioP1;P1;durP2;ratioP2;P2;SDS_P1;SDS_P2;PMS_P1;PMS_P2;Temp;Humidity;BMP_temperature;BMP_pressure;BME280_temperature;BME280_humidity;BME280_pressure;Samples;Min_cycle;Max_cycle;Signal;HPM_P1;HPM_P2
2021/09/25 00:00:24;;;;;;;28.95;11.38;;;;;;;;;;4988615;28;20029;-41
2021/09/25 00:02:49;;;;;;;18.83;8.32;;;;;;;;;;4990486;28;20173;-42
2021/09/25 00:05:15;;;;;;;14.77;7.47;;;;;;;;;;4987515;28;20026;-42
2021/09/25 00:07:40;;;;;;;36.75;9.05;;;;;;;;;;4990140;28;20091;-42
2021/09/25 00:10:05;;;;;;;16.35;8.40;;;;;;;;;;4989141;28;20128;-42
2021/09/25 00:12:31;;;;;;;16.50;7.50;;;;;;;;;;4988961;28;20034;-43
2021/09/25 00:14:57;;;;;;;20.95;9.27;;;;;;;;;;4986787;28;20031;-47
2021/09/25 00:17:22;;;;;;;23.55;7.55;;;;;;;;;;4988134;28;20014;-46
2021/09/25 00:19:47;;;;;;;21.25;7.95;;;;;;;;;;4989295;28;20033;-42
2021/09/25 00:22:12;;;;;;;19.90;7.68;;;;;;;;;;4986698;28;20021;-46
2021/09/25 00:24:38;;;;;;;13.73;7.22;;;;;;;;;;4987898;28;20053;-48
2021/09/25 00:27:03;;;;;;;16.95;9.25;;;;;;;;;;4987490;28;20027;-44
2021/09/25 00:29:29;;;;;;;11.68;8.10;;;;;;;;;;4989946;28;20018;-45
2021/09/25 00:31:54;;;;;;;18.58;8.73;;;;;;;;;;4986690;28;20033;-44
2021/09/25 00:34:20;;;;;;;21.63;8.30;;;;;;;;;;4987853;28;20070;-45
2021/09/25 00:36:46;;;;;;;16.10;8.75;;;;;;;;;;4989265;28;20179;-44
2021/09/25 00:39:11;;;;;;;22.45;7.25;;;;;;;;;;4989967;28;20493;-47
2021/09/25 00:41:36;;;;;;;19.40;9.90;;;;;;;;;;4987028;28;20134;-47
2021/09/25 00:44:02;;;;;;;19.05;7.85;;;;;;;;;;4987470;28;20030;-44
2021/09/25 00:46:27;;;;;;;22.23;9.82;;;;;;;;;;4990649;28;20447;-46
2021/09/25 00:48:52;;;;;;;30.40;10.88;;;;;;;;;;4991668;28;20056;-42
2021/09/25 00:51:18;;;;;;;16.55;8.43;;;;;;;;;;4989595;28;20124;-45
2021/09/25 00:53:44;;;;;;;34.65;7.90;;;;;;;;;;4990196;28;20034;-42
2021/09/25 00:56:10;;;;;;;22.40;8.85;;;;;;;;;;4991698;28;20038;-46
2021/09/25 00:58:39;;;;;;;12.85;6.70;;;;;;;;;;4993685;28;20076;-45
2021/09/25 01:01:05;;;;;;;41.83;13.10;;;;;;;;;;4986835;28;20138;-45
2021/09/25 01:03:30;;;;;;;42.00;10.95;;;;;;;;;;4988894;28;20121;-47
2021/09/25 01:05:55;;;;;;;41.40;11.95;;;;;;;;;;4991225;28;20034;-48
2021/09/25 01:08:23;;;;;;;18.10;8.75;;;;;;;;;;4981916;28;20493;-41
2021/09/25 01:10:49;;;;;;;32.03;13.20;;;;;;;;;;4987246;28;20518;-46
2021/09/25 01:13:14;;;;;;;41.72;13.95;;;;;;;;;;4993422;28;20026;-43
2021/09/25 01:15:39;;;;;;;50.88;14.45;;;;;;;;;;4987240;28;20072;-44
2021/09/25 01:18:05;;;;;;;28.60;12.82;;;;;;;;;;4984785;28;20483;-47
2021/09/25 01:20:30;;;;;;;23.35;12.38;;;;;;;;;;4979367;28;20029;-43
2021/09/25 01:22:55;;;;;;;24.15;10.20;;;;;;;;;;4988085;28;20038;-43
2021/09/25 01:25:23;;;;;;;32.63;10.18;;;;;;;;;;4988326;28;20022;-45
2021/09/25 01:27:49;;;;;;;27.23;12.07;;;;;;;;;;4989129;28;20026;-44
2021/09/25 01:30:15;;;;;;;26.65;9.20;;;;;;;;;;4990288;28;20421;-44
2021/09/25 01:32:41;;;;;;;34.30;11.77;;;;;;;;;;4988881;28;20128;-43
2021/09/25 01:35:06;;;;;;;32.60;10.00;;;;;;;;;;4990406;28;20535;-43
2021/09/25 01:37:32;;;;;;;39.45;12.02;;;;;;;;;;4986507;28;20027;-43
2021/09/25 01:39:57;;;;;;;24.85;9.43;;;;;;;;;;4991454;28;20471;-47
2021/09/25 01:42:22;;;;;;;36.47;13.30;;;;;;;;;;4986899;28;20552;-42
2021/09/25 01:44:49;;;;;;;29.58;11.23;;;;;;;;;;4983856;28;20025;-44
2021/09/25 01:47:15;;;;;;;50.30;12.32;;;;;;;;;;4986077;28;20065;-44
2021/09/25 01:49:40;;;;;;;38.20;13.27;;;;;;;;;;4986416;28;20058;-43
2021/09/25 01:52:06;;;;;;;27.52;12.40;;;;;;;;;;4986738;28;20501;-40
2021/09/25 01:54:31;;;;;;;26.35;11.05;;;;;;;;;;4987379;28;20487;-42
2021/09/25 01:56:56;;;;;;;30.98;12.63;;;;;;;;;;4986563;28;20018;-42
2021/09/25 01:59:22;;;;;;;19.58;11.38;;;;;;;;;;4985072;28;20041;-42
2021/09/25 02:01:47;;;;;;;35.30;13.25;;;;;;;;;;4983416;28;20061;-44
2021/09/25 02:04:12;;;;;;;31.40;10.90;;;;;;;;;;4983697;28;20041;-43
2021/09/25 02:06:38;;;;;;;31.05;11.82;;;;;;;;;;4985359;28;20030;-44
2021/09/25 02:09:06;;;;;;;40.47;13.32;;;;;;;;;;4989668;28;20022;-45
2021/09/25 02:11:32;;;;;;;46.08;12.85;;;;;;;;;;4987425;28;20049;-43
2021/09/25 02:13:59;;;;;;;30.13;13.75;;;;;;;;;;4990831;28;20174;-45
2021/09/25 02:16:27;;;;;;;23.73;11.27;;;;;;;;;;4994410;28;20042;-42
2021/09/25 02:18:52;;;;;;;54.70;14.52;;;;;;;;;;4987943;28;20538;-43
2021/09/25 02:21:17;;;;;;;37.97;14.27;;;;;;;;;;4988825;28;20109;-47
2021/09/25 02:23:43;;;;;;;41.00;13.35;;;;;;;;;;4991791;28;20059;-42
2021/09/25 02:26:09;;;;;;;44.47;13.98;;;;;;;;;;4990190;28;20842;-43
2021/09/25 02:28:34;;;;;;;32.88;12.45;;;;;;;;;;4989456;28;20152;-41
2021/09/25 02:31:00;;;;;;;62.80;16.02;;;;;;;;;;4989057;28;20105;-45
2021/09/25 02:33:26;;;;;;;40.67;13.05;;;;;;;;;;4989279;28;20035;-45
2021/09/25 02:35:54;;;;;;;35.97;13.60;;;;;;;;;;4984266;28;20023;-45
2021/09/25 02:38:20;;;;;;;21.88;10.07;;;;;;;;;;4982524;28;20201;-47
2021/09/25 02:40:45;;;;;;;25.88;11.82;;;;;;;;;;4987000;28;20109;-42
2021/09/25 02:43:11;;;;;;;34.35;11.55;;;;;;;;;;4983300;28;20034;-43
2021/09/25 02:45:42;;;;;;;27.63;11.40;;;;;;;;;;4982952;28;20036;-44
2021/09/25 02:48:07;;;;;;;53.70;10.93;;;;;;;;;;4990067;28;20030;-46
2021/09/25 02:50:33;;;;;;;32.45;10.57;;;;;;;;;;4986864;28;20635;-42
2021/09/25 02:52:58;;;;;;;32.45;10.38;;;;;;;;;;4986909;28;20030;-42
2021/09/25 02:55:26;;;;;;;39.75;10.70;;;;;;;;;;4989864;28;20014;-41
2021/09/25 02:57:52;;;;;;;47.10;14.95;;;;;;;;;;4989886;28;20018;-43
2021/09/25 03:00:20;;;;;;;27.77;12.10;;;;;;;;;;4988432;28;20022;-45
2021/09/25 03:02:46;;;;;;;39.42;11.07;;;;;;;;;;4989861;28;20022;-44
2021/09/25 03:05:11;;;;;;;44.58;12.73;;;;;;;;;;4986992;28;20026;-43
2021/09/25 03:07:37;;;;;;;41.67;14.35;;;;;;;;;;4986481;28;20034;-47
2021/09/25 03:10:03;;;;;;;40.58;10.82;;;;;;;;;;4987436;28;20095;-47
2021/09/25 03:12:29;;;;;;;26.58;10.32;;;;;;;;;;4981894;28;20026;-46
2021/09/25 03:14:54;;;;;;;34.58;12.45;;;;;;;;;;4984735;28;20033;-47
2021/09/25 03:17:19;;;;;;;45.83;12.88;;;;;;;;;;4989801;28;20022;-48
2021/09/25 03:19:47;;;;;;;25.85;11.18;;;;;;;;;;4988180;28;20042;-45
2021/09/25 03:22:12;;;;;;;33.08;11.23;;;;;;;;;;4985797;28;20034;-46
2021/09/25 03:24:38;;;;;;;49.65;14.07;;;;;;;;;;4986919;28;20026;-46
2021/09/25 03:27:03;;;;;;;66.75;12.88;;;;;;;;;;4985353;28;20022;-43
2021/09/25 03:29:28;;;;;;;33.97;11.98;;;;;;;;;;4992792;28;20058;-47
2021/09/25 03:31:55;;;;;;;39.22;13.40;;;;;;;;;;4988591;28;20021;-47
2021/09/25 03:34:20;;;;;;;38.47;13.57;;;;;;;;;;4987138;28;20030;-48
2021/09/25 03:36:45;;;;;;;59.67;14.52;;;;;;;;;;4986820;28;20010;-45
2021/09/25 03:39:10;;;;;;;53.42;11.95;;;;;;;;;;4990699;28;20030;-47
2021/09/25 03:41:36;;;;;;;41.13;14.80;;;;;;;;;;4986936;28;20077;-46
2021/09/25 03:44:01;;;;;;;43.75;12.07;;;;;;;;;;4988035;28;20543;-46
2021/09/25 03:46:27;;;;;;;42.05;13.43;;;;;;;;;;4986398;28;20087;-46
2021/09/25 03:48:52;;;;;;;37.30;11.48;;;;;;;;;;4991268;28;20033;-45
2021/09/25 03:51:17;;;;;;;44.30;12.82;;;;;;;;;;4996880;28;20390;-46
2021/09/25 03:53:43;;;;;;;55.08;13.70;;;;;;;;;;4989158;28;20044;-42
2021/09/25 03:56:08;;;;;;;27.88;10.02;;;;;;;;;;4991891;28;20010;-44
2021/09/25 03:58:37;;;;;;;39.05;12.68;;;;;;;;;;4985902;28;20100;-45
2021/09/25 04:01:03;;;;;;;43.97;14.38;;;;;;;;;;4988020;28;20332;-42
2021/09/25 04:03:28;;;;;;;44.83;11.07;;;;;;;;;;4988083;28;20046;-44
2021/09/25 04:05:55;;;;;;;51.20;13.70;;;;;;;;;;4992580;28;20065;-44
2021/09/25 04:08:20;;;;;;;50.28;14.15;;;;;;;;;;4989463;28;20026;-45
2021/09/25 04:10:45;;;;;;;33.75;11.93;;;;;;;;;;4986153;28;20048;-45
2021/09/25 04:13:11;;;;;;;31.58;11.18;;;;;;;;;;4986263;28;20459;-47
2021/09/25 04:15:37;;;;;;;62.35;12.70;;;;;;;;;;4987816;28;20038;-45
2021/09/25 04:18:02;;;;;;;46.05;14.43;;;;;;;;;;4987562;28;20014;-43
2021/09/25 04:20:27;;;;;;;49.03;12.80;;;;;;;;;;4991543;28;20493;-44
2021/09/25 04:22:53;;;;;;;57.88;14.40;;;;;;;;;;4987072;28;20038;-46
2021/09/25 04:25:19;;;;;;;44.45;13.43;;;;;;;;;;4998742;28;20541;-47
2021/09/25 04:27:49;;;;;;;51.15;10.80;;;;;;;;;;4992470;28;20106;-44
2021/09/25 04:30:14;;;;;;;37.50;9.95;;;;;;;;;;4991514;28;20115;-42
2021/09/25 04:32:40;;;;;;;46.45;11.25;;;;;;;;;;4990275;28;20099;-47
2021/09/25 04:35:05;;;;;;;33.28;14.48;;;;;;;;;;4993725;28;20026;-47
2021/09/25 04:37:30;;;;;;;25.38;12.30;;;;;;;;;;4990862;28;20020;-45
2021/09/25 04:39:56;;;;;;;25.58;10.63;;;;;;;;;;4990771;28;20359;-42
2021/09/25 04:42:21;;;;;;;37.30;12.15;;;;;;;;;;4990953;28;20230;-47
2021/09/25 04:44:46;;;;;;;46.65;15.73;;;;;;;;;;4989869;28;20063;-42
2021/09/25 04:47:12;;;;;;;37.70;12.52;;;;;;;;;;4991980;28;20030;-42
2021/09/25 04:49:37;;;;;;;36.30;11.52;;;;;;;;;;4989106;28;20030;-45
2021/09/25 04:52:02;;;;;;;34.78;12.82;;;;;;;;;;4986739;28;20027;-45
2021/09/25 04:54:28;;;;;;;43.70;12.88;;;;;;;;;;4991406;28;20035;-47
2021/09/25 04:56:53;;;;;;;38.60;10.43;;;;;;;;;;4989503;28;20034;-46
2021/09/25 04:59:18;;;;;;;33.88;12.50;;;;;;;;;;4988926;28;20115;-42
2021/09/25 05:01:43;;;;;;;31.23;11.05;;;;;;;;;;4987017;28;20575;-46
2021/09/25 05:04:10;;;;;;;29.17;9.43;;;;;;;;;;4985085;28;20433;-42
2021/09/25 05:06:35;;;;;;;37.95;11.50;;;;;;;;;;4990830;28;20027;-44
2021/09/25 05:09:00;;;;;;;29.90;11.10;;;;;;;;;;4987350;28;20025;-46
2021/09/25 05:11:26;;;;;;;31.48;12.20;;;;;;;;;;4992287;28;20018;-45
2021/09/25 05:13:51;;;;;;;35.78;12.82;;;;;;;;;;4989764;28;20031;-42
2021/09/25 05:16:17;;;;;;;47.88;15.50;;;;;;;;;;4985652;28;20466;-44
2021/09/25 05:18:42;;;;;;;48.22;13.48;;;;;;;;;;4991050;28;20029;-42
2021/09/25 05:21:08;;;;;;;53.22;11.93;;;;;;;;;;4989154;28;20395;-44
2021/09/25 05:23:34;;;;;;;35.75;11.35;;;;;;;;;;4987140;28;20049;-44
2021/09/25 05:26:00;;;;;;;30.10;12.65;;;;;;;;;;4988535;28;20596;-48
2021/09/25 05:28:26;;;;;;;53.67;14.63;;;;;;;;;;4988169;28;20033;-43
2021/09/25 05:30:52;;;;;;;77.00;15.52;;;;;;;;;;4989470;28;20040;-46
2021/09/25 05:33:17;;;;;;;36.90;13.55;;;;;;;;;;4990212;28;20030;-46
2021/09/25 05:35:42;;;;;;;34.17;9.88;;;;;;;;;;4988340;28;20069;-48
2021/09/25 05:38:07;;;;;;;41.42;11.70;;;;;;;;;;4990497;28;20083;-46
2021/09/25 05:40:33;;;;;;;52.67;16.10;;;;;;;;;;4986830;28;20136;-42
2021/09/25 05:42:58;;;;;;;49.65;13.45;;;;;;;;;;4983851;28;20126;-42
2021/09/25 05:45:24;;;;;;;31.00;11.88;;;;;;;;;;4987613;28;20398;-42
2021/09/25 05:47:49;;;;;;;38.83;11.27;;;;;;;;;;4989462;28;20576;-43
2021/09/25 05:50:14;;;;;;;38.90;13.02;;;;;;;;;;4989367;28;20041;-42
2021/09/25 05:52:40;;;;;;;34.80;12.73;;;;;;;;;;4994403;28;20026;-46
2021/09/25 05:55:06;;;;;;;47.92;15.02;;;;;;;;;;4997670;28;20680;-45
2021/09/25 05:57:32;;;;;;;55.90;14.00;;;;;;;;;;4989311;28;20026;-42
2021/09/25 05:59:57;;;;;;;23.67;9.70;;;;;;;;;;4983996;28;20045;-46
2021/09/25 06:02:22;;;;;;;24.25;10.32;;;;;;;;;;4988814;28;20057;-46
2021/09/25 06:04:48;;;;;;;28.73;12.20;;;;;;;;;;4989629;28;20033;-46
2021/09/25 06:07:13;;;;;;;42.70;12.18;;;;;;;;;;4986721;28;20649;-44
2021/09/25 06:09:39;;;;;;;37.10;12.02;;;;;;;;;;4988448;28;20037;-44
2021/09/25 06:12:05;;;;;;;37.38;14.60;;;;;;;;;;4991501;28;20028;-45
2021/09/25 06:14:30;;;;;;;33.97;12.35;;;;;;;;;;4987692;28;20027;-42
2021/09/25 06:16:56;;;;;;;29.95;12.25;;;;;;;;;;4986053;28;20478;-47
2021/09/25 06:19:21;;;;;;;64.88;15.48;;;;;;;;;;4987931;28;20505;-42
2021/09/25 06:21:47;;;;;;;61.65;14.20;;;;;;;;;;4981108;28;20038;-42
2021/09/25 06:24:12;;;;;;;34.70;13.70;;;;;;;;;;4988323;28;20054;-43
2021/09/25 06:26:37;;;;;;;47.95;14.55;;;;;;;;;;4992467;28;20029;-44
2021/09/25 06:29:03;;;;;;;30.05;13.48;;;;;;;;;;4987239;28;20389;-47
2021/09/25 06:31:29;;;;;;;53.70;12.63;;;;;;;;;;4994739;28;20030;-45
2021/09/25 06:33:54;;;;;;;23.33;9.70;;;;;;;;;;4990717;28;20052;-45
2021/09/25 06:36:20;;;;;;;32.75;9.93;;;;;;;;;;4986643;28;20018;-44
2021/09/25 06:38:45;;;;;;;43.47;13.50;;;;;;;;;;4985696;28;20549;-43
2021/09/25 06:41:10;;;;;;;31.38;11.10;;;;;;;;;;4987084;28;20042;-43
2021/09/25 06:43:36;;;;;;;28.05;9.52;;;;;;;;;;4982648;28;20038;-43
2021/09/25 06:46:01;;;;;;;52.42;9.40;;;;;;;;;;4981172;28;20022;-44
2021/09/25 06:48:27;;;;;;;43.20;9.20;;;;;;;;;;4995370;28;20038;-47
2021/09/25 06:50:52;;;;;;;25.33;9.57;;;;;;;;;;4976631;28;20038;-44
2021/09/25 06:53:17;;;;;;;28.33;8.18;;;;;;;;;;4988192;28;20026;-46
2021/09/25 06:55:43;;;;;;;40.95;11.10;;;;;;;;;;4986153;28;20101;-43
2021/09/25 06:58:08;;;;;;;41.05;9.95;;;;;;;;;;4984892;28;20787;-45
2021/09/25 07:00:34;;;;;;;29.08;9.85;;;;;;;;;;4982505;28;20553;-42
2021/09/25 07:02:59;;;;;;;38.33;10.98;;;;;;;;;;4986206;28;20061;-43
2021/09/25 07:05:24;;;;;;;15.48;6.50;;;;;;;;;;4985907;28;20030;-47
2021/09/25 07:07:50;;;;;;;22.80;10.05;;;;;;;;;;4983550;28;20026;-45
2021/09/25 07:10:15;;;;;;;35.20;8.35;;;;;;;;;;4987837;28;20474;-47
2021/09/25 07:12:41;;;;;;;30.15;8.95;;;;;;;;;;4983736;28;20022;-45
2021/09/25 07:15:06;;;;;;;24.00;8.57;;;;;;;;;;4988198;28;20502;-43
2021/09/25 07:17:32;;;;;;;21.15;7.47;;;;;;;;;;4984302;28;20090;-45
2021/09/25 07:19:58;;;;;;;31.02;7.28;;;;;;;;;;4985673;28;20026;-42
2021/09/25 07:22:23;;;;;;;30.55;7.78;;;;;;;;;;4984013;28;20433;-41
2021/09/25 07:24:53;;;;;;;20.10;8.00;;;;;;;;;;4993908;28;20214;-38
2021/09/25 07:27:19;;;;;;;31.02;7.43;;;;;;;;;;4994771;28;20034;-44
2021/09/25 07:29:44;;;;;;;21.63;7.97;;;;;;;;;;4989342;28;20080;-40
2021/09/25 07:32:09;;;;;;;30.73;6.95;;;;;;;;;;4987295;28;20034;-51
2021/09/25 07:34:34;;;;;;;12.05;4.72;;;;;;;;;;4991880;28;20062;-44
2021/09/25 07:37:00;;;;;;;19.23;8.75;;;;;;;;;;4991191;28;20491;-41
2021/09/25 07:39:25;;;;;;;22.48;7.60;;;;;;;;;;4991088;28;20044;-41
2021/09/25 07:41:51;;;;;;;18.10;7.68;;;;;;;;;;4985847;28;20065;-44
2021/09/25 07:44:16;;;;;;;48.25;16.77;;;;;;;;;;4991460;28;20056;-45
2021/09/25 07:46:41;;;;;;;40.78;18.85;;;;;;;;;;5019192;28;20710;-43
2021/09/25 07:49:06;;;;;;;53.42;31.17;;;;;;;;;;4992608;28;20507;-47
2021/09/25 07:51:32;;;;;;;45.97;26.58;;;;;;;;;;4984783;28;20729;-41
2021/09/25 07:53:57;;;;;;;46.30;29.02;;;;;;;;;;4989392;28;20036;-46
2021/09/25 07:56:23;;;;;;;34.45;16.05;;;;;;;;;;4988585;28;20087;-40
2021/09/25 07:58:48;;;;;;;21.42;10.82;;;;;;;;;;4989202;28;20117;-43
2021/09/25 08:01:14;;;;;;;21.17;6.90;;;;;;;;;;4988591;28;20063;-43
2021/09/25 08:03:39;;;;;;;16.23;5.30;;;;;;;;;;4996331;28;20084;-46
2021/09/25 08:06:05;;;;;;;10.57;4.68;;;;;;;;;;4993308;28;20445;-42
2021/09/25 08:08:31;;;;;;;17.48;5.68;;;;;;;;;;4991588;28;20037;-46
2021/09/25 08:10:56;;;;;;;19.77;7.95;;;;;;;;;;4988477;28;20025;-44
2021/09/25 08:13:21;;;;;;;36.75;6.82;;;;;;;;;;4990448;28;20612;-43
2021/09/25 08:15:48;;;;;;;20.38;7.38;;;;;;;;;;4988010;28;20031;-42
2021/09/25 08:18:13;;;;;;;12.27;6.95;;;;;;;;;;4992565;28;20131;-45
2021/09/25 08:20:38;;;;;;;19.45;9.35;;;;;;;;;;4990781;28;20481;-48
2021/09/25 08:23:04;;;;;;;24.95;19.02;;;;;;;;;;4986011;28;20033;-44
2021/09/25 08:25:29;;;;;;;37.63;29.10;;;;;;;;;;4990002;28;20023;-40
2021/09/25 08:27:54;;;;;;;50.65;25.15;;;;;;;;;;4991341;28;20030;-43
2021/09/25 08:30:24;;;;;;;27.45;15.10;;;;;;;;;;4988101;28;20094;-47
2021/09/25 08:32:49;;;;;;;30.92;14.85;;;;;;;;;;4990690;28;20052;-42
2021/09/25 08:35:14;;;;;;;21.38;11.57;;;;;;;;;;4988596;28;20034;-44
2021/09/25 08:37:40;;;;;;;25.67;15.82;;;;;;;;;;4990213;28;20040;-47
2021/09/25 08:40:07;;;;;;;15.70;9.60;;;;;;;;;;4988254;28;20645;-47
2021/09/25 08:42:33;;;;;;;19.25;8.48;;;;;;;;;;4985171;28;20050;-46
2021/09/25 08:44:58;;;;;;;42.65;33.38;;;;;;;;;;4993726;28;20691;-45
2021/09/25 08:47:23;;;;;;;25.50;11.75;;;;;;;;;;4981894;28;20589;-42
2021/09/25 08:49:49;;;;;;;13.63;10.95;;;;;;;;;;4987958;28;20026;-43
2021/09/25 08:52:14;;;;;;;23.52;11.07;;;;;;;;;;4990715;28;20028;-44
2021/09/25 08:54:40;;;;;;;24.30;13.00;;;;;;;;;;4983632;28;20046;-43
2021/09/25 08:57:05;;;;;;;29.10;11.80;;;;;;;;;;4989284;28;20117;-42
2021/09/25 08:59:30;;;;;;;16.35;5.93;;;;;;;;;;4987008;28;20410;-42
2021/09/25 09:02:08;;;;;;;13.07;7.10;;;;;;;;;;4990602;28;20187;-46
2021/09/25 09:04:46;;;;;;;22.25;5.57;;;;;;;;;;4985022;28;20026;-42
2021/09/25 09:07:32;;;;;;;14.02;7.68;;;;;;;;;;4987530;28;20018;-47
2021/09/25 09:09:58;;;;;;;9.35;5.30;;;;;;;;;;4993154;28;20080;-40
2021/09/25 09:12:27;;;;;;;10.65;5.57;;;;;;;;;;4993788;28;20026;-43
2021/09/25 09:14:53;;;;;;;16.05;7.00;;;;;;;;;;4989015;28;20500;-47
2021/09/25 09:17:26;;;;;;;9.18;7.22;;;;;;;;;;4995171;28;20019;-45
2021/09/25 09:19:51;;;;;;;16.40;5.75;;;;;;;;;;4989945;28;20050;-44
2021/09/25 09:22:17;;;;;;;12.80;6.40;;;;;;;;;;4991739;28;20284;-42
2021/09/25 09:24:47;;;;;;;24.88;8.65;;;;;;;;;;4990210;28;20054;-46
2021/09/25 09:27:13;;;;;;;15.30;5.60;;;;;;;;;;4988543;28;20037;-46
2021/09/25 09:29:39;;;;;;;18.45;7.03;;;;;;;;;;4987217;28;20033;-44
2021/09/25 09:32:06;;;;;;;8.55;5.63;;;;;;;;;;4987678;28;20030;-47
2021/09/25 09:34:37;;;;;;;14.60;6.70;;;;;;;;;;4985155;28;20034;-46
2021/09/25 09:37:14;;;;;;;7.45;5.25;;;;;;;;;;4984007;28;20172;-45
2021/09/25 09:39:39;;;;;;;13.60;5.82;;;;;;;;;;4988220;28;20040;-44
2021/09/25 09:42:04;;;;;;;9.88;6.88;;;;;;;;;;4988732;28;20507;-44
2021/09/25 09:44:30;;;;;;;26.13;6.72;;;;;;;;;;4990757;28;20038;-46
2021/09/25 09:46:59;;;;;;;6.95;5.32;;;;;;;;;;4989030;28;20087;-47
2021/09/25 09:49:26;;;;;;;8.10;6.00;;;;;;;;;;4988093;28;20022;-42
2021/09/25 09:51:56;;;;;;;8.75;4.18;;;;;;;;;;4990236;28;20072;-43
2021/09/25 09:54:23;;;;;;;4.90;3.55;;;;;;;;;;4990016;28;20436;-43
2021/09/25 09:56:49;;;;;;;13.75;5.47;;;;;;;;;;4989702;28;20040;-41
2021/09/25 09:59:15;;;;;;;6.53;4.28;;;;;;;;;;4992805;28;20018;-45
2021/09/25 10:01:41;;;;;;;10.95;5.47;;;;;;;;;;4983577;28;20068;-42
2021/09/25 10:04:07;;;;;;;12.85;4.57;;;;;;;;;;4988463;28;20054;-46
2021/09/25 10:06:35;;;;;;;15.25;6.05;;;;;;;;;;4987437;28;20595;-43
2021/09/25 10:09:02;;;;;;;10.50;3.35;;;;;;;;;;4985094;28;20030;-43
2021/09/25 10:11:28;;;;;;;13.73;4.85;;;;;;;;;;4986287;28;20485;-47
2021/09/25 10:13:54;;;;;;;13.98;4.22;;;;;;;;;;4986303;28;20499;-45
2021/09/25 10:16:19;;;;;;;18.75;4.53;;;;;;;;;;4989132;28;20139;-48
2021/09/25 10:18:45;;;;;;;15.85;3.72;;;;;;;;;;4989099;28;20430;-48
2021/09/25 10:21:11;;;;;;;11.07;4.80;;;;;;;;;;4987133;28;20025;-42
2021/09/25 10:23:44;;;;;;;6.03;3.50;;;;;;;;;;4990747;28;20104;-43
2021/09/25 10:26:09;;;;;;;21.65;8.10;;;;;;;;;;4991746;28;20034;-46
2021/09/25 10:28:35;;;;;;;34.30;6.13;;;;;;;;;;4985664;28;20030;-44
2021/09/25 10:31:00;;;;;;;29.38;6.90;;;;;;;;;;4993683;28;20813;-43
2021/09/25 10:33:25;;;;;;;14.70;4.28;;;;;;;;;;4982831;28;20036;-45
2021/09/25 10:35:53;;;;;;;25.45;5.28;;;;;;;;;;4987992;28;20026;-45
2021/09/25 10:38:38;;;;;;;9.60;4.32;;;;;;;;;;4986441;28;20026;-43
2021/09/25 10:41:17;;;;;;;15.13;5.80;;;;;;;;;;4987450;28;20032;-45
2021/09/25 10:43:44;;;;;;;21.20;8.10;;;;;;;;;;4989364;28;20049;-45
2021/09/25 10:46:10;;;;;;;21.70;4.32;;;;;;;;;;4991447;28;20437;-48
2021/09/25 10:48:43;;;;;;;51.28;10.55;;;;;;;;;;4990845;28;20528;-46
2021/09/25 10:51:13;;;;;;;24.92;7.15;;;;;;;;;;4985235;28;20033;-46
2021/09/25 10:53:39;;;;;;;19.20;7.95;;;;;;;;;;4989680;28;20045;-45
2021/09/25 10:56:06;;;;;;;22.88;8.27;;;;;;;;;;4986784;28;20018;-46
2021/09/25 10:58:35;;;;;;;19.33;7.22;;;;;;;;;;4988699;28;20026;-45
2021/09/25 11:01:04;;;;;;;16.23;6.47;;;;;;;;;;4989258;28;20478;-43
2021/09/25 11:03:46;;;;;;;27.55;8.60;;;;;;;;;;4989644;28;20034;-40
2021/09/25 11:06:11;;;;;;;24.67;8.13;;;;;;;;;;4986376;28;20027;-43
2021/09/25 11:08:37;;;;;;;50.42;8.18;;;;;;;;;;4990249;28;20039;-46
2021/09/25 11:11:11;;;;;;;28.90;6.85;;;;;;;;;;4987999;28;20034;-41
2021/09/25 11:14:05;;;;;;;27.35;10.45;;;;;;;;;;4988024;28;20498;-46
2021/09/25 11:16:43;;;;;;;27.58;8.98;;;;;;;;;;5020711;28;20061;-43
2021/09/25 11:19:09;;;;;;;27.80;5.35;;;;;;;;;;4981724;28;20033;-44
2021/09/25 11:21:34;;;;;;;20.20;7.38;;;;;;;;;;4986955;28;20109;-46
2021/09/25 11:23:59;;;;;;;7.82;5.93;;;;;;;;;;4987817;28;20030;-45
2021/09/25 11:26:25;;;;;;;18.63;5.75;;;;;;;;;;4985052;28;20034;-48
2021/09/25 11:28:50;;;;;;;27.92;10.10;;;;;;;;;;4984878;28;20023;-45
2021/09/25 11:31:15;;;;;;;14.30;5.95;;;;;;;;;;4987099;28;20057;-43
2021/09/25 11:33:40;;;;;;;43.78;10.00;;;;;;;;;;4993304;28;20403;-45
2021/09/25 11:36:09;;;;;;;50.10;11.55;;;;;;;;;;4984316;28;20118;-43
2021/09/25 11:38:45;;;;;;;39.08;9.68;;;;;;;;;;4988218;28;20018;-48
2021/09/25 11:41:14;;;;;;;59.25;11.13;;;;;;;;;;4986769;28;20126;-47
2021/09/25 11:43:40;;;;;;;17.77;9.63;;;;;;;;;;4984471;28;20133;-45
2021/09/25 11:46:06;;;;;;;22.42;7.68;;;;;;;;;;4983921;28;20382;-45
2021/09/25 11:48:34;;;;;;;20.92;7.47;;;;;;;;;;4987135;28;20026;-44
2021/09/25 11:51:02;;;;;;;9.60;5.47;;;;;;;;;;4986867;28;20113;-43
2021/09/25 11:53:29;;;;;;;31.95;5.88;;;;;;;;;;4986607;28;20041;-48
2021/09/25 11:55:54;;;;;;;24.70;8.32;;;;;;;;;;4979674;28;20029;-48
2021/09/25 11:58:21;;;;;;;29.10;4.65;;;;;;;;;;4987209;28;20022;-42
2021/09/25 12:00:48;;;;;;;28.27;9.15;;;;;;;;;;4988934;28;20018;-45
2021/09/25 12:03:15;;;;;;;31.17;10.77;;;;;;;;;;4983662;28;20034;-45
2021/09/25 12:05:42;;;;;;;17.58;8.73;;;;;;;;;;4988683;28;20026;-43
2021/09/25 12:08:11;;;;;;;21.25;7.15;;;;;;;;;;4988198;28;20440;-41
2021/09/25 12:10:36;;;;;;;27.30;10.75;;;;;;;;;;4990391;28;20520;-45
2021/09/25 12:13:05;;;;;;;24.75;7.28;;;;;;;;;;4988868;28;20030;-46
2021/09/25 12:15:32;;;;;;;14.60;6.10;;;;;;;;;;4990499;28;20026;-46
2021/09/25 12:18:05;;;;;;;20.77;5.82;;;;;;;;;;4987429;28;20022;-48
2021/09/25 12:20:32;;;;;;;16.63;5.15;;;;;;;;;;4975020;28;20050;-47
2021/09/25 12:22:57;;;;;;;23.65;9.10;;;;;;;;;;4991892;28;20025;-47
2021/09/25 12:25:23;;;;;;;11.68;4.13;;;;;;;;;;4990679;28;20084;-49
2021/09/25 12:27:48;;;;;;;14.40;6.18;;;;;;;;;;4991488;28;20176;-45
2021/09/25 12:30:15;;;;;;;17.55;5.55;;;;;;;;;;4990473;28;20348;-43
2021/09/25 12:32:41;;;;;;;15.05;5.47;;;;;;;;;;4992388;28;20031;-43
2021/09/25 12:35:16;;;;;;;14.88;6.00;;;;;;;;;;4993061;28;20062;-46
2021/09/25 12:37:46;;;;;;;11.93;4.45;;;;;;;;;;4988030;28;20479;-40
2021/09/25 12:40:11;;;;;;;13.57;5.70;;;;;;;;;;4982380;28;20055;-46
2021/09/25 12:42:39;;;;;;;8.77;3.80;;;;;;;;;;4980966;28;20089;-45
2021/09/25 12:45:05;;;;;;;10.88;4.85;;;;;;;;;;4989493;28;20076;-51
2021/09/25 12:47:31;;;;;;;8.63;4.00;;;;;;;;;;4989961;28;20442;-47
2021/09/25 12:50:33;;;;;;;20.48;6.00;;;;;;;;;;4990015;28;20022;-47
2021/09/25 12:52:59;;;;;;;12.50;4.40;;;;;;;;;;5044034;28;20097;-47
2021/09/25 12:55:25;;;;;;;8.45;3.95;;;;;;;;;;4999459;28;20550;-45
2021/09/25 12:57:56;;;;;;;7.07;3.88;;;;;;;;;;4990017;28;20030;-46
2021/09/25 13:00:26;;;;;;;10.23;4.95;;;;;;;;;;4989315;28;20126;-44
2021/09/25 13:02:52;;;;;;;7.95;3.85;;;;;;;;;;4993224;28;20036;-48
2021/09/25 13:05:31;;;;;;;17.02;4.22;;;;;;;;;;4989251;28;20038;-44
2021/09/25 13:08:11;;;;;;;11.38;3.78;;;;;;;;;;4988758;28;20031;-46
2021/09/25 13:10:44;;;;;;;12.13;4.30;;;;;;;;;;4993194;28;20499;-42
2021/09/25 13:13:13;;;;;;;7.68;2.45;;;;;;;;;;4988835;28;20582;-46
2021/09/25 13:15:40;;;;;;;12.90;4.50;;;;;;;;;;4986363;28;20019;-43
2021/09/25 13:18:05;;;;;;;9.38;3.17;;;;;;;;;;4990662;28;20192;-45
2021/09/25 13:20:31;;;;;;;14.90;4.07;;;;;;;;;;4985506;28;20172;-42
2021/09/25 13:22:58;;;;;;;9.02;3.08;;;;;;;;;;4989820;28;20026;-47
2021/09/25 13:25:24;;;;;;;7.60;3.55;;;;;;;;;;4984512;28;20026;-48
2021/09/25 13:27:50;;;;;;;15.23;4.93;;;;;;;;;;4984056;28;20029;-45
2021/09/25 13:30:16;;;;;;;4.93;2.95;;;;;;;;;;4990444;28;20485;-45
2021/09/25 13:32:42;;;;;;;10.18;4.40;;;;;;;;;;4992535;28;20037;-44
2021/09/25 13:35:07;;;;;;;16.60;4.80;;;;;;;;;;4992847;28;20117;-51
2021/09/25 13:37:33;;;;;;;4.93;2.75;;;;;;;;;;4986829;28;20418;-45
2021/09/25 13:39:59;;;;;;;11.75;5.30;;;;;;;;;;4984883;28;20074;-48
2021/09/25 13:42:25;;;;;;;12.60;5.28;;;;;;;;;;4986718;28;20046;-42
2021/09/25 13:44:50;;;;;;;16.33;4.13;;;;;;;;;;4983785;28;20677;-43
2021/09/25 13:47:16;;;;;;;15.95;4.38;;;;;;;;;;4990203;28;20037;-45
2021/09/25 13:49:41;;;;;;;6.25;3.50;;;;;;;;;;4985429;28;20033;-46
2021/09/25 13:52:08;;;;;;;11.02;5.22;;;;;;;;;;4980584;28;20056;-44
2021/09/25 13:54:33;;;;;;;20.00;4.35;;;;;;;;;;4990647;28;20447;-45
2021/09/25 13:56:58;;;;;;;11.32;4.18;;;;;;;;;;4989933;28;20021;-42
2021/09/25 13:59:24;;;;;;;13.13;4.30;;;;;;;;;;4987816;28;20520;-42
2021/09/25 14:01:49;;;;;;;13.65;4.53;;;;;;;;;;4986460;28;20071;-43
2021/09/25 14:04:15;;;;;;;5.30;3.13;;;;;;;;;;4989796;28;20022;-42
2021/09/25 14:06:40;;;;;;;9.85;4.15;;;;;;;;;;4985497;28;20030;-49
2021/09/25 14:09:05;;;;;;;5.68;2.58;;;;;;;;;;4991569;28;20106;-45
2021/09/25 14:11:31;;;;;;;6.50;3.65;;;;;;;;;;4986134;28;20378;-48
2021/09/25 14:13:56;;;;;;;8.48;3.72;;;;;;;;;;4989839;28;20018;-46
2021/09/25 14:16:21;;;;;;;16.90;5.10;;;;;;;;;;4989163;28;20506;-43
2021/09/25 14:18:47;;;;;;;6.75;3.47;;;;;;;;;;4986619;28;20018;-44
2021/09/25 14:21:13;;;;;;;11.90;4.35;;;;;;;;;;4985107;28;20095;-43